createdAt,value
2019-04-14T00:00:55.400Z,102302.61
2019-04-14T00:03:45.472Z,102302.09
2019-04-14T00:06:16.449Z,102303.73
2019-04-14T00:08:47.946Z,102306.41
2019-04-14T00:11:21.234Z,102302.84
2019-04-14T00:13:52.419Z,102305.90
2019-04-14T00:16:22.863Z,102296.23
2019-04-14T00:18:53.430Z,102302.00
2019-04-14T00:21:24.056Z,102303.67
2019-04-14T00:23:54.806Z,102301.80
2019-04-14T00:26:29.355Z,102307.09
2019-04-14T00:29:00.785Z,102301.55
2019-04-14T00:31:32.945Z,102298.80
2019-04-14T00:34:22.487Z,102306.38
2019-04-14T00:37:18.495Z,102296.16
2019-04-14T00:39:53.232Z,102304.58
2019-04-14T00:42:38.750Z,102305.93
2019-04-14T00:45:32.270Z,102298.00
2019-04-14T00:48:03.195Z,102299.64
2019-04-14T00:50:30.440Z,102306.80
2019-04-14T00:53:01.224Z,102293.55
2019-04-14T00:55:31.924Z,102293.39
2019-04-14T00:58:03.911Z,102301.28
2019-04-14T01:00:34.239Z,102298.16
2019-04-14T01:03:04.848Z,102300.45
2019-04-14T01:05:36.026Z,102294.00
2019-04-14T01:08:07.438Z,102291.36
2019-04-14T01:10:38.993Z,102298.97
2019-04-14T01:13:12.602Z,102302.73
2019-04-14T01:15:51.230Z,102304.14
2019-04-14T01:18:16.829Z,102299.28
2019-04-14T01:20:47.438Z,102297.18
2019-04-14T01:23:19.278Z,102299.43
2019-04-14T01:25:50.075Z,102304.66
2019-04-14T01:28:20.355Z,102304.56
2019-04-14T01:30:52.194Z,102304.95
2019-04-14T01:33:22.990Z,102309.82
2019-04-14T01:35:53.339Z,102305.31
2019-04-14T01:38:23.622Z,102304.38
2019-04-14T01:40:53.852Z,102310.34
2019-04-14T01:43:25.639Z,102304.16
2019-04-14T01:46:05.137Z,102307.51
2019-04-14T01:48:28.096Z,102305.73
2019-04-14T01:51:09.259Z,102304.70
2019-04-14T01:53:57.709Z,102303.69
2019-04-14T01:56:51.328Z,102313.40
2019-04-14T01:59:21.990Z,102311.31
2019-04-14T02:01:54.532Z,102321.11
2019-04-14T02:04:26.952Z,102316.24
2019-04-14T02:06:59.505Z,102314.34
2019-04-14T02:09:31.526Z,102322.30
2019-04-14T02:12:02.030Z,102322.75
2019-04-14T02:14:32.365Z,102320.88
2019-04-14T02:17:04.408Z,102320.81
2019-04-14T02:19:34.964Z,102326.06
2019-04-14T02:22:05.293Z,102326.10
2019-04-14T02:24:35.699Z,102331.33
2019-04-14T02:27:07.644Z,102330.11
2019-04-14T02:29:38.367Z,102328.64
2019-04-14T02:32:43.363Z,102330.80
2019-04-14T02:35:13.319Z,102322.03
2019-04-14T02:37:44.792Z,102323.88
2019-04-14T02:42:46.844Z,102330.91
2019-04-14T02:45:24.567Z,102328.67
2019-04-14T02:50:18.165Z,102341.20
2019-04-14T02:52:51.954Z,102339.00
2019-04-14T02:55:21.424Z,102343.84
2019-04-14T02:57:52.096Z,102337.58
2019-04-14T03:00:31.638Z,102344.61
2019-04-14T03:02:56.333Z,102341.80
2019-04-14T03:05:37.649Z,102341.28
2019-04-14T03:08:08.245Z,102338.87
2019-04-14T03:13:13.439Z,102337.48
2019-04-14T03:16:02.399Z,102334.04
2019-04-14T03:18:35.225Z,102336.44
2019-04-14T03:21:21.310Z,102335.12
2019-04-14T03:26:50.282Z,102336.55
2019-04-14T03:29:28.882Z,102330.10
2019-04-14T03:32:11.033Z,102326.14
2019-04-14T03:34:42.461Z,102326.42
2019-04-14T03:42:12.779Z,102326.52
2019-04-14T03:44:41.996Z,102325.41
2019-04-14T03:47:13.527Z,102333.76
2019-04-14T03:50:00.043Z,102324.44
2019-04-14T03:52:13.558Z,102323.80
2019-04-14T03:54:44.110Z,102324.36
2019-04-14T03:56:55.884Z,102330.70
2019-04-14T03:59:26.331Z,102325.34
2019-04-14T04:01:56.734Z,102329.48
2019-04-14T04:04:27.507Z,102327.15
2019-04-14T04:06:57.812Z,102329.17
2019-04-14T04:09:41.528Z,102333.94
2019-04-14T04:12:11.822Z,102337.55
2019-04-14T04:14:42.045Z,102338.39
2019-04-14T04:17:47.312Z,102342.81
2019-04-14T04:20:54.836Z,102337.38
2019-04-14T04:23:35.631Z,102342.17
2019-04-14T04:26:12.667Z,102331.59
2019-04-14T04:29:09.135Z,102337.12
2019-04-14T04:31:57.080Z,102335.37
2019-04-14T04:34:46.635Z,102335.91
2019-04-14T04:37:48.401Z,102337.48
2019-04-14T04:40:28.940Z,102347.69
2019-04-14T04:42:59.411Z,102347.44
2019-04-14T04:45:30.235Z,102355.20
2019-04-14T04:48:02.406Z,102352.73
2019-04-14T04:50:33.028Z,102348.77
2019-04-14T04:53:04.720Z,102359.79
2019-04-14T04:55:35.268Z,102355.64
2019-04-14T04:58:05.695Z,102357.34
2019-04-14T05:00:37.278Z,102369.73
2019-04-14T05:03:07.969Z,102368.25
2019-04-14T05:06:20.828Z,102366.34
2019-04-14T05:08:52.506Z,102361.08
2019-04-14T05:11:33.688Z,102374.50
2019-04-14T05:14:10.905Z,102369.98
2019-04-14T05:16:41.869Z,102366.16
2019-04-14T05:19:23.238Z,102374.57
2019-04-14T05:21:45.232Z,102381.12
2019-04-14T05:24:15.811Z,102385.53
2019-04-14T05:26:48.486Z,102385.53
2019-04-14T05:29:19.069Z,102382.02
2019-04-14T05:31:49.742Z,102380.62
2019-04-14T05:34:21.583Z,102383.86
2019-04-14T05:36:52.252Z,102378.98
2019-04-14T05:39:24.207Z,102376.41
2019-04-14T05:42:04.122Z,102381.34
2019-04-14T05:44:27.586Z,102384.82
2019-04-14T05:46:58.615Z,102388.38
2019-04-14T05:49:38.196Z,102392.84
2019-04-14T05:52:01.961Z,102403.16
2019-04-14T05:54:32.247Z,102400.09
2019-04-14T05:57:02.527Z,102399.73
2019-04-14T05:59:33.074Z,102404.59
2019-04-14T06:02:03.324Z,102409.09
2019-04-14T06:04:33.624Z,102405.81
2019-04-14T06:07:04.312Z,102407.61
2019-04-14T06:09:35.513Z,102408.53
2019-04-14T06:12:06.265Z,102405.98
2019-04-14T06:14:36.973Z,102409.34
2019-04-14T06:17:07.289Z,102415.50
2019-04-14T06:19:40.522Z,102410.80
2019-04-14T06:22:09.677Z,102413.45
2019-04-14T06:24:40.482Z,102416.54
2019-04-14T06:27:11.932Z,102427.13
2019-04-14T06:29:42.570Z,102421.27
2019-04-14T06:32:44.195Z,102421.38
2019-04-14T06:35:33.899Z,102430.59
2019-04-14T06:38:07.049Z,102430.05
2019-04-14T06:40:47.845Z,102431.73
2019-04-14T06:43:18.085Z,102431.53
2019-04-14T06:45:49.090Z,102432.80
2019-04-14T06:48:20.766Z,102431.03
2019-04-14T06:50:51.789Z,102434.39
2019-04-14T06:53:22.120Z,102435.96
2019-04-14T06:55:54.989Z,102441.10
2019-04-14T06:58:24.414Z,102430.01
2019-04-14T07:00:54.805Z,102435.62
2019-04-14T07:03:25.079Z,102427.50
2019-04-14T07:05:55.373Z,102431.78
2019-04-14T07:08:29.831Z,102430.81
2019-04-14T07:10:59.798Z,102431.52
2019-04-14T07:13:30.134Z,102431.41
2019-04-14T07:16:00.446Z,102433.95
2019-04-14T07:18:30.983Z,102439.11
2019-04-14T07:21:01.638Z,102436.18
2019-04-14T07:23:32.556Z,102436.47
2019-04-14T07:26:02.960Z,102442.94
2019-04-14T07:28:33.987Z,102441.58
2019-04-14T07:31:32.351Z,102441.33
2019-04-14T07:34:39.853Z,102443.72
2019-04-14T07:37:29.073Z,102449.02
2019-04-14T07:40:22.700Z,102448.59
2019-04-14T07:42:59.437Z,102451.14
2019-04-14T07:45:52.833Z,102453.22
2019-04-14T07:48:28.726Z,102451.63
2019-04-14T07:51:16.240Z,102457.64
2019-04-14T07:53:59.488Z,102452.69
2019-04-14T07:56:48.955Z,102452.31
2019-04-14T07:59:27.938Z,102454.88
2019-04-14T08:02:23.581Z,102455.41
2019-04-14T08:05:00.976Z,102452.19
2019-04-14T08:07:31.917Z,102457.49
2019-04-14T08:10:02.139Z,102462.14
2019-04-14T08:12:35.120Z,102447.45
2019-04-14T08:15:04.895Z,102463.36
2019-04-14T08:17:35.126Z,102459.02
2019-04-14T08:20:06.165Z,102452.30
2019-04-14T08:22:36.402Z,102453.84
2019-04-14T08:25:07.503Z,102456.08
2019-04-14T08:27:38.236Z,102454.41
2019-04-14T08:30:09.532Z,102455.93
2019-04-14T08:32:39.818Z,102449.81
2019-04-14T08:35:10.457Z,102454.89
2019-04-14T08:37:41.141Z,102455.85
2019-04-14T08:40:11.751Z,102462.33
2019-04-14T08:43:00.643Z,102465.47
2019-04-14T08:45:40.147Z,102462.33
2019-04-14T08:48:38.602Z,102473.75
2019-04-14T08:51:27.165Z,102464.50
2019-04-14T08:54:06.571Z,102469.58
2019-04-14T08:57:01.766Z,102472.66
2019-04-14T08:59:46.883Z,102473.29
2019-04-14T09:02:42.593Z,102476.63
2019-04-14T09:05:38.119Z,102472.09
2019-04-14T09:08:19.532Z,102478.06
2019-04-14T09:10:54.019Z,102480.76
2019-04-14T09:13:30.436Z,102478.30
2019-04-14T09:15:57.102Z,102479.00
2019-04-14T09:18:27.869Z,102484.99
2019-04-14T09:20:58.264Z,102481.14
2019-04-14T09:23:28.979Z,102484.31
2019-04-14T09:26:00.766Z,102488.11
2019-04-14T09:28:31.241Z,102480.80
2019-04-14T09:31:02.122Z,102483.22
2019-04-14T09:33:33.055Z,102486.12
2019-04-14T09:36:04.139Z,102487.65
2019-04-14T09:38:35.099Z,102485.99
2019-04-14T09:41:09.687Z,102491.13
2019-04-14T09:43:40.524Z,102492.23
2019-04-14T09:46:13.203Z,102491.16
2019-04-14T09:48:44.141Z,102498.61
2019-04-14T09:51:15.114Z,102492.43
2019-04-14T09:53:46.204Z,102492.48
2019-04-14T09:56:16.630Z,102492.84
2019-04-14T09:58:47.329Z,102492.44
2019-04-14T10:01:18.101Z,102491.31
2019-04-14T10:03:49.019Z,102491.97
2019-04-14T10:06:19.508Z,102486.88
2019-04-14T10:08:50.610Z,102481.42
2019-04-14T10:11:21.783Z,102490.41
2019-04-14T10:13:52.153Z,102487.13
2019-04-14T10:16:22.463Z,102487.97
2019-04-14T10:18:53.842Z,102481.05
2019-04-14T10:21:24.225Z,102488.08
2019-04-14T10:23:54.709Z,102498.11
2019-04-14T10:26:25.047Z,102499.89
2019-04-14T10:28:56.714Z,102497.33
2019-04-14T10:31:28.782Z,102492.44
2019-04-14T10:33:59.194Z,102498.16
2019-04-14T10:36:29.357Z,102502.87
2019-04-14T10:38:59.756Z,102509.69
2019-04-14T10:41:30.332Z,102501.88
2019-04-14T10:44:02.728Z,102502.47
2019-04-14T10:46:33.225Z,102498.41
2019-04-14T10:49:03.500Z,102498.61
2019-04-14T10:51:34.333Z,102500.10
2019-04-14T10:54:05.506Z,102497.08
2019-04-14T10:56:35.808Z,102494.22
2019-04-14T10:59:06.253Z,102496.36
2019-04-14T11:01:37.401Z,102490.66
2019-04-14T11:04:08.279Z,102495.00
2019-04-14T11:07:00.833Z,102496.56
2019-04-14T11:09:31.251Z,102494.20
2019-04-14T11:12:01.999Z,102499.59
2019-04-14T11:14:32.781Z,102497.27
2019-04-14T11:17:03.765Z,102496.53
2019-04-14T11:19:34.379Z,102504.27
2019-04-14T11:22:04.829Z,102494.02
2019-04-14T11:24:35.420Z,102492.09
2019-04-14T11:27:06.235Z,102495.39
2019-04-14T11:29:37.057Z,102492.41
2019-04-14T11:32:26.354Z,102494.74
2019-04-14T11:35:11.744Z,102499.05
2019-04-14T11:38:00.982Z,102497.13
2019-04-14T11:40:36.062Z,102491.68
2019-04-14T11:43:06.513Z,102499.50
2019-04-14T11:45:37.134Z,102493.27
2019-04-14T11:48:07.793Z,102496.56
2019-04-14T11:50:38.208Z,102498.98
2019-04-14T11:53:08.629Z,102501.49
2019-04-14T11:55:39.867Z,102500.47
2019-04-14T11:58:11.029Z,102507.87
2019-04-14T12:00:55.107Z,102507.14
2019-04-14T12:03:43.058Z,102508.17
2019-04-14T12:06:47.853Z,102513.92
2019-04-14T12:09:40.063Z,102512.84
2019-04-14T12:12:15.958Z,102503.14
2019-04-14T12:14:47.481Z,102504.66
2019-04-14T12:17:17.803Z,102507.63
2019-04-14T12:19:48.444Z,102502.78
2019-04-14T12:22:18.758Z,102512.28
2019-04-14T12:24:49.042Z,102508.31
2019-04-14T12:27:19.808Z,102507.28
2019-04-14T12:29:50.158Z,102516.70
2019-04-14T12:32:20.733Z,102515.28
2019-04-14T12:34:51.179Z,102508.25
2019-04-14T12:37:21.817Z,102516.84
2019-04-14T12:39:52.162Z,102518.84
2019-04-14T12:42:42.384Z,102522.06
2019-04-14T12:45:30.645Z,102519.50
2019-04-14T12:48:23.121Z,102512.44
2019-04-14T12:50:58.513Z,102509.02
2019-04-14T12:53:29.043Z,102507.39
2019-04-14T12:55:59.464Z,102507.73
2019-04-14T12:58:51.931Z,102510.12
2019-04-14T13:01:23.100Z,102525.37
2019-04-14T13:03:53.700Z,102512.55
2019-04-14T13:06:25.272Z,102517.82
2019-04-14T13:08:55.564Z,102516.85
2019-04-14T13:11:26.311Z,102507.95
2019-04-14T13:13:57.106Z,102505.84
2019-04-14T13:16:27.795Z,102502.86
2019-04-14T13:18:58.177Z,102501.25
2019-04-14T13:21:28.696Z,102508.38
2019-04-14T13:23:59.092Z,102505.52
2019-04-14T13:26:29.828Z,102501.21
2019-04-14T13:29:01.309Z,102503.41
2019-04-14T13:31:32.300Z,102508.55
2019-04-14T13:34:03.222Z,102506.17
2019-04-14T13:36:34.404Z,102506.00
2019-04-14T13:39:07.323Z,102509.61
2019-04-14T13:41:38.238Z,102502.86
2019-04-14T13:44:08.636Z,102500.98
2019-04-14T13:46:39.347Z,102504.84
2019-04-14T13:49:09.906Z,102500.08
2019-04-14T13:51:41.082Z,102497.47
2019-04-14T13:54:11.935Z,102500.27
2019-04-14T13:56:42.825Z,102490.22
2019-04-14T13:59:13.285Z,102493.69
2019-04-14T14:01:44.156Z,102493.06
2019-04-14T14:04:14.892Z,102503.64
2019-04-14T14:06:45.235Z,102499.67
2019-04-14T14:09:16.169Z,102497.13
2019-04-14T14:12:04.063Z,102488.53
2019-04-14T14:14:44.290Z,102489.14
2019-04-14T14:17:31.425Z,102493.48
2019-04-14T14:20:21.102Z,102492.28
2019-04-14T14:23:13.943Z,102504.74
2019-04-14T14:25:49.297Z,102501.33
2019-04-14T14:28:20.743Z,102485.32
2019-04-14T14:30:51.618Z,102492.38
2019-04-14T14:33:23.573Z,102501.81
2019-04-14T14:35:55.081Z,102500.95
2019-04-14T14:38:25.660Z,102500.75
2019-04-14T14:40:57.613Z,102499.94
2019-04-14T14:43:28.200Z,102509.48
2019-04-14T14:46:15.577Z,102501.78
2019-04-14T14:48:57.204Z,102513.36
2019-04-14T14:51:45.492Z,102509.47
2019-04-14T14:54:16.399Z,102506.52
2019-04-14T14:56:46.890Z,102511.91
2019-04-14T14:59:17.935Z,102508.72
2019-04-14T15:01:48.954Z,102506.42
2019-04-14T15:04:19.454Z,102512.17
2019-04-14T15:06:51.893Z,102520.42
2019-04-14T15:09:22.763Z,102517.55
2019-04-14T15:11:54.409Z,102516.63
2019-04-14T15:14:25.460Z,102506.38
2019-04-14T15:16:56.877Z,102506.31
2019-04-14T15:19:27.193Z,102507.47
2019-04-14T15:21:58.065Z,102499.58
2019-04-14T15:24:29.407Z,102500.38
2019-04-14T15:27:02.452Z,102502.27
2019-04-14T15:29:42.008Z,102501.48
2019-04-14T15:32:15.140Z,102507.03
2019-04-14T15:34:46.474Z,102503.23
2019-04-14T15:37:17.187Z,102506.52
2019-04-14T15:39:48.355Z,102500.26
2019-04-14T15:42:19.315Z,102507.33
2019-04-14T15:44:53.336Z,102499.94
2019-04-14T15:47:25.028Z,102506.18
2019-04-14T15:49:55.693Z,102499.84
2019-04-14T15:52:26.064Z,102499.79
2019-04-14T15:54:56.407Z,102499.37
2019-04-14T15:57:38.029Z,102497.80
2019-04-14T16:00:41.035Z,102499.52
2019-04-14T16:03:42.757Z,102506.17
2019-04-14T16:06:35.114Z,102494.29
2019-04-14T16:09:31.889Z,102512.52
2019-04-14T16:12:24.347Z,102503.12
2019-04-14T16:15:16.827Z,102506.03
2019-04-14T16:17:59.511Z,102508.80
2019-04-14T16:20:32.178Z,102494.63
2019-04-14T16:23:03.345Z,102501.41
2019-04-14T16:25:59.373Z,102507.34
2019-04-14T16:28:39.065Z,102510.58
2019-04-14T16:31:29.007Z,102509.23
2019-04-14T16:34:20.939Z,102509.71
2019-04-14T16:36:51.690Z,102511.05
2019-04-14T16:39:22.042Z,102509.80
2019-04-14T16:41:53.055Z,102508.98
2019-04-14T16:44:25.671Z,102507.53
2019-04-14T16:46:56.815Z,102508.77
2019-04-14T16:49:27.621Z,102505.90
2019-04-14T16:52:08.112Z,102512.05
2019-04-14T16:54:50.745Z,102512.56
2019-04-14T16:57:36.302Z,102516.74
2019-04-14T17:00:07.948Z,102515.77
2019-04-14T17:02:38.700Z,102521.02
2019-04-14T17:05:09.430Z,102521.86
2019-04-14T17:07:40.423Z,102522.78
2019-04-14T17:10:11.242Z,102528.09
2019-04-14T17:12:41.647Z,102525.48
2019-04-14T17:15:42.346Z,102526.73
2019-04-14T17:18:21.509Z,102527.72
2019-04-14T17:21:00.653Z,102523.83
2019-04-14T17:23:44.768Z,102529.66
2019-04-14T17:26:41.686Z,102530.22
2019-04-14T17:29:26.649Z,102525.98
2019-04-14T17:32:19.460Z,102531.86
2019-04-14T17:35:16.199Z,102529.12
2019-04-14T17:38:04.468Z,102525.13
2019-04-14T17:41:09.527Z,102531.68
2019-04-14T17:43:48.893Z,102536.45
2019-04-14T17:46:40.977Z,102536.25
2019-04-14T17:49:30.332Z,102527.65
2019-04-14T17:52:18.287Z,102532.83
2019-04-14T17:54:56.609Z,102544.54
2019-04-14T17:57:52.316Z,102540.78
2019-04-14T18:00:44.760Z,102541.64
2019-04-14T18:03:34.402Z,102551.19
2019-04-14T18:06:11.336Z,102551.24
2019-04-14T18:09:16.235Z,102553.60
2019-04-14T18:11:55.466Z,102558.95
2019-04-14T18:14:45.117Z,102561.94
2019-04-14T18:17:25.950Z,102566.83
2019-04-14T18:20:00.667Z,102575.20
2019-04-14T18:22:31.139Z,102579.19
2019-04-14T18:25:02.323Z,102581.84
2019-04-14T18:27:35.533Z,102582.59
2019-04-14T18:30:18.669Z,102586.61
2019-04-14T18:33:04.556Z,102588.34
2019-04-14T18:35:46.089Z,102594.53
2019-04-14T18:38:27.602Z,102595.80
2019-04-14T18:41:04.510Z,102589.27
2019-04-14T18:43:52.912Z,102599.66
2019-04-14T18:46:48.575Z,102594.69
2019-04-14T18:49:30.115Z,102601.48
2019-04-14T18:52:10.527Z,102593.64
2019-04-14T18:54:59.210Z,102601.56
2019-04-14T18:57:37.542Z,102608.16
2019-04-14T19:00:40.345Z,102604.59
2019-04-14T19:03:11.011Z,102609.06
2019-04-14T19:05:41.954Z,102617.52
2019-04-14T19:08:13.349Z,102617.41
2019-04-14T19:10:45.932Z,102619.11
2019-04-14T19:13:30.095Z,102625.89
2019-04-14T19:16:10.807Z,102624.41
2019-04-14T19:18:44.373Z,102625.40
2019-04-14T19:21:17.142Z,102623.95
2019-04-14T19:23:47.510Z,102627.89
2019-04-14T19:26:18.047Z,102633.13
2019-04-14T19:28:48.391Z,102633.00
2019-04-14T19:31:18.931Z,102638.02
2019-04-14T19:33:49.853Z,102645.59
2019-04-14T19:36:20.324Z,102634.19
2019-04-14T19:38:50.729Z,102642.16
2019-04-14T19:41:25.726Z,102641.44
2019-04-14T19:43:56.655Z,102639.80
2019-04-14T19:46:27.163Z,102647.23
2019-04-14T19:48:58.705Z,102657.35
2019-04-14T19:51:29.807Z,102655.61
2019-04-14T19:54:01.601Z,102665.38
2019-04-14T19:56:32.882Z,102659.66
2019-04-14T19:59:03.467Z,102668.38
2019-04-14T20:01:33.935Z,102678.57
2019-04-14T20:04:05.698Z,102679.41
2019-04-14T20:06:36.057Z,102677.89
2019-04-14T20:09:07.785Z,102684.06
2019-04-14T20:11:38.491Z,102679.32
2019-04-14T20:14:09.113Z,102680.30
2019-04-14T20:16:57.817Z,102683.09
2019-04-14T20:19:39.046Z,102693.25
2019-04-14T20:22:25.272Z,102691.13
2019-04-14T20:25:14.648Z,102692.94
2019-04-14T20:27:56.179Z,102685.55
2019-04-14T20:30:43.200Z,102683.45
2019-04-14T20:33:13.506Z,102684.73
2019-04-14T20:35:43.861Z,102693.17
2019-04-14T20:38:15.657Z,102692.23
2019-04-14T20:40:47.149Z,102694.33
2019-04-14T20:43:18.004Z,102698.20
2019-04-14T20:45:48.565Z,102694.33
2019-04-14T20:48:19.110Z,102694.08
2019-04-14T20:50:49.984Z,102701.55
2019-04-14T20:53:20.322Z,102705.63
2019-04-14T20:55:50.586Z,102708.83
2019-04-14T20:58:20.884Z,102711.51
2019-04-14T21:00:51.250Z,102711.31
2019-04-14T21:03:46.992Z,102714.48
2019-04-14T21:06:48.280Z,102714.94
2019-04-14T21:09:37.588Z,102719.75
2019-04-14T21:12:27.456Z,102719.72
2019-04-14T21:15:19.548Z,102718.55
2019-04-14T21:18:06.393Z,102718.20
2019-04-14T21:21:08.451Z,102720.94
2019-04-14T21:23:49.568Z,102724.56
2019-04-14T21:26:39.955Z,102721.84
2019-04-14T21:29:38.017Z,102730.16
2019-04-14T21:32:15.822Z,102723.75
2019-04-14T21:34:59.976Z,102722.33
2019-04-14T21:37:49.897Z,102724.56
2019-04-14T21:40:46.952Z,102723.14
2019-04-14T21:43:21.989Z,102734.19
2019-04-14T21:45:54.705Z,102728.53
2019-04-14T21:48:25.024Z,102729.89
2019-04-14T21:50:55.364Z,102736.91
2019-04-14T21:53:28.017Z,102727.66
2019-04-14T21:55:58.673Z,102736.03
2019-04-14T21:58:51.144Z,102736.13
2019-04-14T22:01:54.822Z,102733.08
2019-04-14T22:04:43.532Z,102736.60
2019-04-14T22:07:24.185Z,102746.33
2019-04-14T22:09:57.945Z,102746.36
2019-04-14T22:12:28.699Z,102754.06
2019-04-14T22:14:58.935Z,102754.84
2019-04-14T22:17:29.546Z,102751.77
2019-04-14T22:20:00.248Z,102752.16
2019-04-14T22:22:30.936Z,102752.13
2019-04-14T22:25:01.386Z,102754.84
2019-04-14T22:27:32.425Z,102753.13
2019-04-14T22:30:02.819Z,102749.52
2019-04-14T22:32:33.237Z,102754.36
2019-04-14T22:35:04.189Z,102759.27
2019-04-14T22:37:35.052Z,102758.01
2019-04-14T22:40:06.126Z,102761.47
2019-04-14T22:42:38.556Z,102765.50
2019-04-14T22:45:11.992Z,102761.47
2019-04-14T22:47:42.367Z,102762.92
2019-04-14T22:50:12.693Z,102766.56
2019-04-14T22:52:43.715Z,102769.14
2019-04-14T22:55:14.142Z,102771.47
2019-04-14T22:57:44.536Z,102775.13
2019-04-14T23:00:23.784Z,102770.20
2019-04-14T23:03:12.115Z,102775.94
2019-04-14T23:06:11.243Z,102772.82
2019-04-14T23:08:49.469Z,102779.10
2019-04-14T23:11:35.353Z,102775.55
2019-04-14T23:14:18.801Z,102778.31
2019-04-14T23:17:17.923Z,102777.89
2019-04-14T23:19:54.509Z,102779.24
2019-04-14T23:22:33.245Z,102778.42
2019-04-14T23:25:04.201Z,102780.30
2019-04-14T23:27:34.648Z,102778.45
2019-04-14T23:30:06.213Z,102787.30
2019-04-14T23:32:36.518Z,102785.38
2019-04-14T23:35:06.990Z,102789.36
2019-04-14T23:37:37.295Z,102786.73
2019-04-14T23:40:08.417Z,102787.61
2019-04-14T23:42:41.568Z,102782.37
2019-04-14T23:45:11.730Z,102782.00
2019-04-14T23:47:42.097Z,102787.24
2019-04-14T23:50:12.851Z,102787.30
2019-04-14T23:52:43.803Z,102791.70
2019-04-14T23:55:14.754Z,102785.92
2019-04-14T23:57:46.013Z,102785.53
